createdAt,value
2019-04-24T00:07:46.169Z,6.33
2019-04-24T00:16:08.512Z,5.00
2019-04-24T00:32:50.987Z,5.80
2019-04-24T00:41:14.043Z,6.27
2019-04-24T01:06:21.738Z,4.70
2019-04-24T01:14:51.175Z,3.80
2019-04-24T01:23:05.291Z,4.30
2019-04-24T01:31:26.151Z,4.20
2019-04-24T01:56:48.236Z,5.10
2019-04-24T02:21:26.224Z,5.20
2019-04-24T02:29:41.128Z,5.23
2019-04-24T02:38:26.562Z,5.13
2019-04-24T02:55:04.866Z,6.10
2019-04-24T03:03:25.862Z,6.30
2019-04-24T03:12:22.078Z,7.60
2019-04-24T03:36:59.925Z,8.30
2019-04-24T03:45:24.292Z,9.03
2019-04-24T04:02:17.668Z,10.60
2019-04-24T04:10:21.062Z,10.50
2019-04-24T04:27:07.282Z,9.50
2019-04-24T04:35:21.672Z,11.43
2019-04-24T04:43:58.286Z,10.47
2019-04-24T04:52:10.105Z,10.57
2019-04-24T05:42:22.001Z,12.30
2019-04-24T05:50:53.029Z,13.77
2019-04-24T06:07:45.517Z,13.47
2019-04-24T06:16:28.174Z,14.23
2019-04-24T06:24:34.557Z,15.23
2019-04-24T06:33:18.784Z,16.00
2019-04-24T06:41:43.645Z,16.07
2019-04-24T06:49:56.458Z,16.87
2019-04-24T07:06:40.324Z,15.67
2019-04-24T07:23:41.018Z,17.47
2019-04-24T07:32:09.517Z,15.40
2019-04-24T07:40:59.790Z,15.80
2019-04-24T07:57:32.115Z,16.40
2019-04-24T08:05:53.971Z,17.33
2019-04-24T08:15:11.543Z,16.33
2019-04-24T08:31:44.580Z,17.30
2019-04-24T08:40:10.016Z,16.60
2019-04-24T08:48:49.154Z,17.50
2019-04-24T09:05:31.485Z,17.20
2019-04-24T09:14:15.457Z,17.97
2019-04-24T09:22:54.291Z,18.00
2019-04-24T09:31:19.166Z,17.53
2019-04-24T10:05:25.881Z,18.03
2019-04-24T10:14:00.389Z,15.70
2019-04-24T10:22:38.990Z,16.17
2019-04-24T10:31:19.328Z,16.37
2019-04-24T10:40:11.075Z,16.03
2019-04-24T10:48:57.430Z,15.90
2019-04-24T10:57:12.997Z,17.27
2019-04-24T11:05:52.251Z,16.40
2019-04-24T11:14:13.473Z,21.75
2019-04-24T11:22:49.694Z,16.03
2019-04-24T11:31:11.603Z,15.80
2019-04-24T11:40:08.819Z,15.07
2019-04-24T11:56:56.678Z,15.97
2019-04-24T12:14:01.071Z,16.97
2019-04-24T12:22:23.706Z,17.23
2019-04-24T12:39:02.712Z,14.90
2019-04-24T12:47:25.115Z,15.20
2019-04-24T12:56:08.012Z,14.77
2019-04-24T13:04:31.412Z,15.80
2019-04-24T13:13:04.026Z,14.33
2019-04-24T13:21:08.964Z,13.23
2019-04-24T13:30:06.278Z,15.33
2019-04-24T13:38:17.189Z,13.13
2019-04-24T13:46:25.237Z,13.80
2019-04-24T14:20:54.344Z,15.15
2019-04-24T14:29:12.929Z,14.17
2019-04-24T14:37:37.737Z,14.40
2019-04-24T14:54:31.978Z,11.53
2019-04-24T15:02:47.019Z,12.83
2019-04-24T15:10:59.886Z,12.33
2019-04-24T15:19:19.491Z,12.00
2019-04-24T15:27:34.205Z,12.10
2019-04-24T15:36:04.752Z,10.60
2019-04-24T15:44:14.577Z,8.20
2019-04-24T15:52:04.941Z,8.37
2019-04-24T16:01:00.175Z,7.33
2019-04-24T16:08:44.748Z,6.80
2019-04-24T16:25:50.702Z,7.75
2019-04-24T16:34:11.057Z,8.30
2019-04-24T16:51:14.559Z,9.33
2019-04-24T16:59:18.189Z,8.70
2019-04-24T17:16:32.843Z,10.10
2019-04-24T17:24:53.489Z,11.80
2019-04-24T17:40:57.884Z,11.43
2019-04-24T17:49:56.792Z,13.43
2019-04-24T18:05:53.951Z,12.40
2019-04-24T18:14:11.856Z,12.30
2019-04-24T18:22:38.489Z,12.50
2019-04-24T18:30:48.691Z,14.73
2019-04-24T18:39:06.977Z,13.57
2019-04-24T18:47:24.486Z,14.07
2019-04-24T18:55:42.596Z,12.50
2019-04-24T19:04:00.283Z,13.43
2019-04-24T19:12:18.040Z,13.43
2019-04-24T19:20:36.881Z,14.40
2019-04-24T19:28:54.410Z,13.97
2019-04-24T19:37:11.889Z,17.23
2019-04-24T19:45:31.317Z,18.87
2019-04-24T19:53:51.197Z,14.07
2019-04-24T20:02:08.884Z,16.30
2019-04-24T20:10:45.938Z,16.80
2019-04-24T20:19:04.390Z,14.93
2019-04-24T20:27:22.198Z,16.57
2019-04-24T20:35:39.704Z,31.93
2019-04-24T20:43:57.701Z,19.10
2019-04-24T20:52:16.800Z,14.40
2019-04-24T21:00:34.644Z,29.10
2019-04-24T21:08:58.033Z,24.90
2019-04-24T21:17:15.535Z,16.43
2019-04-24T21:25:33.123Z,24.93
2019-04-24T21:33:50.615Z,18.77
2019-04-24T21:42:08.272Z,16.03
2019-04-24T21:50:26.240Z,20.00
2019-04-24T21:58:43.808Z,32.13
2019-04-24T22:07:19.099Z,19.30
2019-04-24T22:15:36.658Z,17.70
2019-04-24T22:24:16.720Z,17.48
2019-04-24T22:32:33.456Z,17.10
2019-04-24T22:41:04.289Z,16.73
2019-04-24T22:49:21.796Z,16.10
2019-04-24T22:57:39.225Z,21.17
2019-04-24T23:05:56.943Z,16.90
2019-04-24T23:14:14.669Z,16.97
2019-04-24T23:22:43.240Z,18.33
2019-04-24T23:31:25.501Z,25.57
2019-04-24T23:39:42.949Z,16.50
2019-04-24T23:48:01.404Z,15.70
2019-04-24T23:56:19.079Z,18.43
